Time;durP1;ratioP1;P1;durP2;ratioP2;P2;SDS_P1;SDS_P2;PMS_P1;PMS_P2;Temp;Humidity;BMP_temperature;BMP_pressure;BME280_temperature;BME280_humidity;BME280_pressure;Samples;Min_cycle;Max_cycle;Signal;HPM_P1;HPM_P2
2024/01/12 00:00:54;;;;;;;2.80;0.30;;;;;;;-6.88;100.00;99980.73;104513;1256;59640;-56
2024/01/12 00:03:21;;;;;;;0.50;0.20;;;;;;;-6.90;100.00;99985.05;104750;1260;73056;-58
2024/01/12 00:05:49;;;;;;;1.00;0.10;;;;;;;-6.95;100.00;99993.48;106096;1258;67179;-57
2024/01/12 00:08:17;;;;;;;1.00;0.30;;;;;;;-7.00;100.00;99995.27;104886;1259;73290;-57
2024/01/12 00:10:44;;;;;;;0.60;0.30;;;;;;;-7.04;100.00;100004.05;105360;1261;61145;-55
2024/01/12 00:13:11;;;;;;;0.80;0.30;;;;;;;-7.08;100.00;100010.93;104444;1258;60105;-54
2024/01/12 00:15:39;;;;;;;2.00;0.40;;;;;;;-7.12;100.00;100010.10;104733;1261;72917;-56
2024/01/12 00:18:06;;;;;;;2.90;0.30;;;;;;;-7.16;100.00;100026.59;104374;1258;65200;-56
2024/01/12 00:20:35;;;;;;;0.70;0.30;;;;;;;-7.19;100.00;100023.35;105411;1258;70143;-56
2024/01/12 00:23:03;;;;;;;2.40;0.40;;;;;;;-7.21;100.00;100028.17;104862;1258;61099;-56
2024/01/12 00:25:30;;;;;;;0.70;0.20;;;;;;;-7.24;100.00;100026.20;104607;1259;59609;-57
2024/01/12 00:27:57;;;;;;;0.80;0.30;;;;;;;-7.28;100.00;100031.14;104641;1256;74087;-56
2024/01/12 00:30:25;;;;;;;0.90;0.50;;;;;;;-7.31;100.00;100033.50;104456;1261;66885;-58
2024/01/12 00:32:52;;;;;;;1.70;0.20;;;;;;;-7.31;100.00;100034.20;104579;1261;71818;-56
2024/01/12 00:35:19;;;;;;;1.30;0.30;;;;;;;-7.35;100.00;100042.66;104743;1256;59691;-55
2024/01/12 00:37:49;;;;;;;1.40;0.30;;;;;;;-7.38;100.00;100047.78;104729;1258;60080;-56
2024/01/12 00:40:16;;;;;;;0.80;0.30;;;;;;;-7.39;100.00;100049.13;104689;1257;72002;-57
2024/01/12 00:42:43;;;;;;;0.70;0.30;;;;;;;-7.44;100.00;100048.15;104873;1261;67070;-56
2024/01/12 00:45:11;;;;;;;1.10;0.30;;;;;;;-7.49;100.00;100054.44;104752;1258;72813;-56
2024/01/12 00:47:38;;;;;;;1.90;0.50;;;;;;;-7.54;100.00;100060.05;104623;1259;59819;-58
2024/01/12 00:50:06;;;;;;;2.60;0.40;;;;;;;-7.55;100.00;100063.48;104793;1260;59527;-55
2024/01/12 00:52:33;;;;;;;2.80;0.30;;;;;;;-7.58;100.00;100065.85;104698;1255;73015;-57
2024/01/12 00:55:00;;;;;;;1.70;0.30;;;;;;;-7.60;100.00;100070.16;104583;1257;67637;-58
2024/01/12 00:57:28;;;;;;;0.50;0.30;;;;;;;-7.63;100.00;100074.78;104891;1259;71389;-56
2024/01/12 00:59:55;;;;;;;2.90;0.30;;;;;;;-7.69;100.00;100073.91;104675;1261;63144;-57
2024/01/12 01:02:22;;;;;;;1.30;0.30;;;;;;;-7.73;100.00;100076.56;104576;1261;60466;-56
2024/01/12 01:04:50;;;;;;;2.00;0.40;;;;;;;-7.77;100.00;100072.46;104774;1260;73316;-58
2024/01/12 01:07:17;;;;;;;2.10;0.40;;;;;;;-7.78;100.00;100081.14;104643;1255;66254;-56
2024/01/12 01:09:44;;;;;;;1.50;0.30;;;;;;;-7.78;100.00;100084.80;104742;1256;72789;-56
2024/01/12 01:12:11;;;;;;;0.70;0.30;;;;;;;-7.80;100.00;100087.02;104741;1260;61023;-57
2024/01/12 01:14:39;;;;;;;0.60;0.40;;;;;;;-7.80;100.00;100090.10;104568;1261;60455;-56
2024/01/12 01:17:06;;;;;;;2.00;0.40;;;;;;;-7.83;100.00;100086.73;104759;1261;74286;-56
2024/01/12 01:19:35;;;;;;;2.60;0.30;;;;;;;-7.86;100.00;100088.40;104494;1256;66149;-56
2024/01/12 01:22:03;;;;;;;0.60;0.30;;;;;;;-7.87;100.00;100094.43;105030;1255;72766;-56
2024/01/12 01:24:31;;;;;;;0.80;0.30;;;;;;;-7.87;100.00;100097.41;105674;1260;60817;-57
2024/01/12 01:26:58;;;;;;;0.80;0.30;;;;;;;-7.89;100.00;100100.99;104797;1258;60487;-56
2024/01/12 01:29:26;;;;;;;3.80;0.40;;;;;;;-7.92;100.00;100108.24;104539;1258;73326;-56
2024/01/12 01:31:54;;;;;;;1.80;0.40;;;;;;;-7.97;100.00;100112.25;104627;1261;65686;-55
2024/01/12 01:34:21;;;;;;;3.50;0.40;;;;;;;-7.99;100.00;100108.69;104650;1261;72706;-56
2024/01/12 01:36:49;;;;;;;3.40;0.30;;;;;;;-7.99;100.00;100111.66;104569;1256;60611;-56
2024/01/12 01:39:16;;;;;;;0.70;0.20;;;;;;;-8.00;100.00;100112.51;104500;1255;60560;-56
2024/01/12 01:41:43;;;;;;;1.70;0.30;;;;;;;-8.01;100.00;100119.97;104682;1261;74349;-59
2024/01/12 01:44:10;;;;;;;0.80;0.20;;;;;;;-8.07;100.00;100118.03;104640;1261;66773;-56
2024/01/12 01:46:38;;;;;;;0.40;0.20;;;;;;;-8.10;100.00;100117.42;104744;1258;71455;-57
2024/01/12 01:49:05;;;;;;;2.70;0.20;;;;;;;-8.10;100.00;100116.54;104601;1264;60542;-56
2024/01/12 01:51:33;;;;;;;0.50;0.20;;;;;;;-8.09;100.00;100121.80;104700;1256;62805;-58
2024/01/12 01:54:00;;;;;;;1.10;0.20;;;;;;;-8.09;100.00;100122.70;104850;1257;73916;-56
2024/01/12 01:56:27;;;;;;;1.10;0.30;;;;;;;-8.07;100.00;100125.16;104691;1264;65774;-56
2024/01/12 01:58:55;;;;;;;1.90;0.20;;;;;;;-8.06;100.00;100127.13;104549;1255;72709;-56
2024/01/12 02:01:22;;;;;;;0.60;0.30;;;;;;;-8.04;100.00;100130.14;104753;1258;60561;-58
2024/01/12 02:03:49;;;;;;;0.90;0.30;;;;;;;-8.03;100.00;100136.11;104484;1255;60217;-57
2024/01/12 02:06:18;;;;;;;0.60;0.20;;;;;;;-8.06;100.00;100137.58;104835;1255;72625;-56
2024/01/12 02:08:46;;;;;;;0.40;0.20;;;;;;;-8.07;100.00;100137.71;105692;1257;70340;-55
2024/01/12 02:11:14;;;;;;;0.70;0.30;;;;;;;-8.05;100.00;100139.17;108674;1256;73801;-57
2024/01/12 02:13:41;;;;;;;1.30;0.30;;;;;;;-8.05;100.00;100135.69;108700;1255;60037;-57
2024/01/12 02:16:08;;;;;;;1.30;0.30;;;;;;;-8.05;100.00;100140.91;108696;1255;58853;-56
2024/01/12 02:18:36;;;;;;;1.60;0.30;;;;;;;-8.10;100.00;100137.98;108684;1255;73029;-58
2024/01/12 02:21:04;;;;;;;0.80;0.30;;;;;;;-8.13;100.00;100143.27;105329;1256;67141;-57
2024/01/12 02:23:31;;;;;;;3.40;0.30;;;;;;;-8.18;100.00;100142.23;108657;1255;70549;-57
2024/01/12 02:25:58;;;;;;;0.90;0.50;;;;;;;-8.23;100.00;100145.73;108811;1256;59659;-57
2024/01/12 02:28:26;;;;;;;3.10;0.20;;;;;;;-8.24;100.00;100149.15;108870;1255;60109;-57
2024/01/12 02:30:53;;;;;;;2.00;0.30;;;;;;;-8.28;100.00;100154.09;107632;1256;76436;-56
2024/01/12 02:33:20;;;;;;;0.80;0.20;;;;;;;-8.29;100.00;100156.30;108284;1256;67563;-57
2024/01/12 02:35:48;;;;;;;0.30;0.20;;;;;;;-8.33;100.00;100158.14;104522;1259;71541;-57
2024/01/12 02:38:15;;;;;;;0.90;0.30;;;;;;;-8.34;100.00;100166.98;104518;1256;61553;-56
2024/01/12 02:40:43;;;;;;;2.60;0.30;;;;;;;-8.32;100.00;100168.92;108619;1255;58296;-55
2024/01/12 02:43:10;;;;;;;2.10;0.50;;;;;;;-8.36;100.00;100170.92;108810;1258;72649;-56
2024/01/12 02:45:37;;;;;;;2.20;0.70;;;;;;;-8.39;100.00;100173.27;108808;1255;67022;-57
2024/01/12 02:48:05;;;;;;;1.10;0.40;;;;;;;-8.44;100.00;100169.95;108794;1255;73208;-57
2024/01/12 02:50:33;;;;;;;1.20;0.50;;;;;;;-8.46;100.00;100173.73;104718;1257;60579;-55
2024/01/12 02:53:00;;;;;;;0.70;0.40;;;;;;;-8.44;100.00;100173.44;104838;1255;60445;-56
2024/01/12 02:55:27;;;;;;;2.40;0.40;;;;;;;-8.47;100.00;100174.19;104780;1256;74214;-56
2024/01/12 02:57:55;;;;;;;1.60;0.30;;;;;;;-8.52;100.00;100177.16;104700;1261;65777;-56
2024/01/12 03:00:22;;;;;;;1.10;0.40;;;;;;;-8.54;100.00;100179.17;104631;1261;72759;-56
2024/01/12 03:02:49;;;;;;;0.80;0.40;;;;;;;-8.54;100.00;100181.79;104622;1258;60974;-54
2024/01/12 03:05:17;;;;;;;3.10;0.40;;;;;;;-8.56;100.00;100189.55;104986;1261;60983;-56
2024/01/12 03:07:44;;;;;;;1.80;0.50;;;;;;;-8.60;100.00;100192.72;104931;1261;71938;-56
2024/01/12 03:10:12;;;;;;;1.60;0.30;;;;;;;-8.62;100.00;100196.48;104922;1258;68402;-56
2024/01/12 03:12:39;;;;;;;4.20;0.40;;;;;;;-8.66;100.00;100195.98;104694;1261;70402;-56
2024/01/12 03:15:07;;;;;;;1.50;0.40;;;;;;;-8.71;100.00;100199.98;104740;1256;60513;-55
2024/01/12 03:17:34;;;;;;;1.20;0.30;;;;;;;-8.74;100.00;100201.27;106606;1255;60492;-55
2024/01/12 03:20:04;;;;;;;1.10;0.20;;;;;;;-8.76;100.00;100202.59;105883;1255;71616;-55
2024/01/12 03:22:32;;;;;;;1.10;0.20;;;;;;;-8.78;100.00;100204.27;104661;1261;66070;-56
2024/01/12 03:25:00;;;;;;;0.80;0.20;;;;;;;-8.81;100.00;100206.27;104675;1258;71562;-57
2024/01/12 03:27:28;;;;;;;1.20;0.20;;;;;;;-8.82;100.00;100207.77;104841;1256;60561;-57
2024/01/12 03:29:55;;;;;;;1.20;0.20;;;;;;;-8.85;100.00;100210.43;104741;1260;60417;-56
2024/01/12 03:32:22;;;;;;;0.50;0.20;;;;;;;-8.89;100.00;100214.28;105506;1258;73910;-55
2024/01/12 03:34:50;;;;;;;1.40;0.20;;;;;;;-8.92;100.00;100217.84;104821;1261;66979;-54
2024/01/12 03:37:17;;;;;;;1.10;0.20;;;;;;;-8.97;100.00;100219.05;104904;1261;71249;-57
2024/01/12 03:39:45;;;;;;;1.30;0.20;;;;;;;-8.99;100.00;100222.81;104645;1255;60654;-58
2024/01/12 03:42:12;;;;;;;0.70;0.30;;;;;;;-8.99;100.00;100225.76;104678;1255;60563;-56
2024/01/12 03:44:39;;;;;;;0.70;0.20;;;;;;;-9.00;100.00;100229.52;104663;1259;74355;-53
2024/01/12 03:47:07;;;;;;;0.60;0.20;;;;;;;-9.02;100.00;100237.83;104974;1260;65511;-54
2024/01/12 03:49:34;;;;;;;1.00;0.30;;;;;;;-9.02;100.00;100242.85;104801;1261;71116;-55
2024/01/12 03:52:03;;;;;;;0.60;0.30;;;;;;;-9.03;100.00;100246.64;104421;1256;61017;-57
2024/01/12 03:54:42;;;;;;;0.60;0.30;;;;;;;-9.02;100.00;100247.39;105566;1260;59479;-55
2024/01/12 03:57:09;;;;;;;1.60;0.20;;;;;;;-9.01;100.00;100250.02;105366;1261;74278;-54
2024/01/12 03:59:36;;;;;;;1.80;0.20;;;;;;;-9.02;100.00;100252.95;104553;1261;67164;-56
2024/01/12 04:02:04;;;;;;;0.90;0.10;;;;;;;-9.06;100.00;100258.89;104631;1257;71305;-56
2024/01/12 04:04:31;;;;;;;1.20;0.20;;;;;;;-9.07;100.00;100259.86;104892;1258;61250;-56
2024/01/12 04:06:59;;;;;;;2.20;0.30;;;;;;;-9.08;100.00;100262.78;104829;1257;59672;-55
2024/01/12 04:09:26;;;;;;;1.50;0.40;;;;;;;-9.11;100.00;100261.48;105414;1260;75359;-55
2024/01/12 04:11:54;;;;;;;1.20;0.40;;;;;;;-9.15;100.00;100265.83;104511;1259;65825;-58
2024/01/12 04:14:21;;;;;;;2.20;0.40;;;;;;;-9.18;100.00;100267.48;104691;1260;71359;-56
2024/01/12 04:16:49;;;;;;;2.40;0.40;;;;;;;-9.19;100.00;100268.98;105197;1256;61403;-55
2024/01/12 04:19:16;;;;;;;2.30;0.40;;;;;;;-9.23;100.00;100273.16;104683;1262;60429;-56
2024/01/12 04:21:44;;;;;;;0.80;0.40;;;;;;;-9.27;100.00;100273.21;104719;1259;72680;-55
2024/01/12 04:24:11;;;;;;;2.50;0.50;;;;;;;-9.27;100.00;100278.41;104619;1258;67387;-56
2024/01/12 04:26:39;;;;;;;2.00;0.40;;;;;;;-9.27;100.00;100281.54;104926;1267;71591;-56
2024/01/12 04:29:06;;;;;;;1.10;0.40;;;;;;;-9.29;100.00;100287.21;104827;1257;60496;-55
2024/01/12 04:31:39;;;;;;;1.40;0.30;;;;;;;-9.32;100.00;100295.78;104933;1260;60453;-58
2024/01/12 04:34:07;;;;;;;1.40;0.40;;;;;;;-9.33;100.00;100302.52;104749;1259;73842;-55
2024/01/12 04:36:34;;;;;;;1.50;0.60;;;;;;;-9.34;100.00;100306.99;105537;1260;67053;-57
2024/01/12 04:39:02;;;;;;;1.70;0.30;;;;;;;-9.34;100.00;100307.34;104784;1260;71247;-53
2024/01/12 04:41:30;;;;;;;2.80;0.40;;;;;;;-9.33;100.00;100311.02;104595;1255;60865;-55
2024/01/12 04:43:58;;;;;;;1.30;0.40;;;;;;;-9.33;100.00;100310.85;104531;1256;60442;-53
2024/01/12 04:46:25;;;;;;;1.10;0.40;;;;;;;-9.33;100.00;100312.58;104644;1261;75569;-54
2024/01/12 04:48:52;;;;;;;1.00;0.40;;;;;;;-9.36;100.00;100312.31;104594;1256;66725;-55
2024/01/12 04:51:20;;;;;;;1.40;0.50;;;;;;;-9.37;100.00;100308.95;104522;1263;72418;-54
2024/01/12 04:53:47;;;;;;;1.20;0.40;;;;;;;-9.42;100.00;100308.90;104430;1255;60947;-54
2024/01/12 04:56:15;;;;;;;1.10;0.40;;;;;;;-9.48;100.00;100320.86;104539;1258;60530;-55
2024/01/12 04:58:43;;;;;;;1.40;0.40;;;;;;;-9.50;100.00;100325.27;104550;1263;73863;-55
2024/01/12 05:01:10;;;;;;;1.10;0.50;;;;;;;-9.51;100.00;100332.86;104685;1261;66322;-55
2024/01/12 05:03:38;;;;;;;2.50;0.50;;;;;;;-9.51;100.00;100336.88;104775;1259;71784;-55
2024/01/12 05:06:05;;;;;;;2.10;0.40;;;;;;;-9.53;100.00;100340.81;104635;1259;60497;-54
2024/01/12 05:08:34;;;;;;;1.70;0.50;;;;;;;-9.57;100.00;100348.27;105470;1260;60366;-53
2024/01/12 05:11:02;;;;;;;1.50;0.50;;;;;;;-9.60;100.00;100353.02;108188;1260;72503;-54
2024/01/12 05:13:29;;;;;;;1.40;0.60;;;;;;;-9.60;100.00;100358.40;108066;1258;66591;-56
2024/01/12 05:15:57;;;;;;;1.90;0.60;;;;;;;-9.57;100.00;100358.54;104507;1261;72973;-55
2024/01/12 05:18:24;;;;;;;1.00;0.40;;;;;;;-9.55;100.00;100365.23;104551;1261;62291;-55
2024/01/12 05:20:52;;;;;;;2.50;0.50;;;;;;;-9.55;100.00;100368.00;104428;1263;60561;-54
2024/01/12 05:23:19;;;;;;;1.30;0.50;;;;;;;-9.56;100.00;100373.36;104807;1256;72409;-56
2024/01/12 05:25:47;;;;;;;1.30;0.40;;;;;;;-9.58;100.00;100376.22;106793;1261;65007;-56
2024/01/12 05:28:14;;;;;;;1.40;0.50;;;;;;;-9.59;100.00;100381.56;104834;1261;71401;-54
2024/01/12 05:30:42;;;;;;;3.80;0.60;;;;;;;-9.59;100.00;100387.81;104749;1258;60983;-53
2024/01/12 05:33:09;;;;;;;3.20;0.60;;;;;;;-9.60;100.00;100391.41;106625;1262;60650;-55
2024/01/12 05:35:37;;;;;;;2.60;0.60;;;;;;;-9.63;100.00;100392.54;104727;1257;72927;-55
2024/01/12 05:38:04;;;;;;;1.20;0.60;;;;;;;-9.61;100.00;100389.98;104731;1273;66815;-54
2024/01/12 05:40:31;;;;;;;4.40;0.60;;;;;;;-9.59;100.00;100394.39;104736;1257;72780;-53
2024/01/12 05:42:59;;;;;;;2.10;0.70;;;;;;;-9.61;100.00;100390.69;105199;1260;60611;-56
2024/01/12 05:45:27;;;;;;;1.70;0.60;;;;;;;-9.61;100.00;100392.25;104586;1261;61857;-53
2024/01/12 05:47:54;;;;;;;2.00;0.60;;;;;;;-9.62;100.00;100393.09;106742;1261;73756;-55
2024/01/12 05:50:22;;;;;;;2.70;0.60;;;;;;;-9.65;100.00;100393.45;104765;1261;67042;-55
2024/01/12 05:52:49;;;;;;;3.10;0.60;;;;;;;-9.70;100.00;100393.43;104799;1258;72684;-54
2024/01/12 05:55:16;;;;;;;1.20;0.60;;;;;;;-9.74;100.00;100395.88;104656;1262;61293;-55
2024/01/12 05:57:43;;;;;;;2.20;0.70;;;;;;;-9.79;100.00;100396.17;104706;1255;60692;-56
2024/01/12 06:00:12;;;;;;;2.20;0.60;;;;;;;-9.81;100.00;100397.15;104548;1261;71852;-55
2024/01/12 06:02:39;;;;;;;1.70;0.70;;;;;;;-9.81;100.00;100401.13;105299;1262;68545;-55
2024/01/12 06:05:07;;;;;;;2.40;0.70;;;;;;;-9.81;100.00;100405.28;104873;1261;70733;-56
2024/01/12 06:07:34;;;;;;;1.40;0.50;;;;;;;-9.83;100.00;100409.55;106082;1260;60868;-55
2024/01/12 06:10:03;;;;;;;3.20;0.70;;;;;;;-9.84;100.00;100407.39;104815;1261;60992;-57
2024/01/12 06:12:30;;;;;;;1.80;0.70;;;;;;;-9.82;100.00;100409.55;104534;1261;73869;-54
2024/01/12 06:14:59;;;;;;;2.60;1.00;;;;;;;-9.81;100.00;100411.85;104777;1258;67575;-54
2024/01/12 06:17:27;;;;;;;2.40;0.60;;;;;;;-9.84;100.00;100412.44;105495;1260;71278;-54
2024/01/12 06:19:55;;;;;;;1.30;0.60;;;;;;;-9.89;100.00;100412.42;104724;1258;62005;-59
2024/01/12 06:22:22;;;;;;;2.70;0.60;;;;;;;-9.90;100.00;100411.45;104727;1256;60975;-53
2024/01/12 06:24:49;;;;;;;3.50;1.30;;;;;;;-9.90;100.00;100412.86;104625;1255;74322;-54
2024/01/12 06:27:17;;;;;;;2.60;0.60;;;;;;;-9.90;100.00;100412.69;104820;1260;65951;-53
2024/01/12 06:29:44;;;;;;;3.10;0.70;;;;;;;-9.94;100.00;100409.75;104709;1262;71431;-55
2024/01/12 06:32:12;;;;;;;3.30;0.80;;;;;;;-9.95;100.00;100408.66;104652;1255;60482;-55
2024/01/12 06:34:40;;;;;;;2.10;0.60;;;;;;;-9.94;100.00;100417.74;104679;1261;61426;-54
2024/01/12 06:37:07;;;;;;;1.10;0.80;;;;;;;-9.91;100.00;100420.82;104542;1261;73799;-54
2024/01/12 06:39:35;;;;;;;1.60;0.60;;;;;;;-9.91;100.00;100420.63;104708;1262;66910;-54
2024/01/12 06:42:02;;;;;;;1.10;0.50;;;;;;;-9.91;100.00;100421.65;104611;1256;72702;-54
2024/01/12 06:44:30;;;;;;;1.00;0.50;;;;;;;-9.88;100.00;100426.52;104472;1263;60568;-54
2024/01/12 06:46:57;;;;;;;1.30;0.50;;;;;;;-9.86;100.00;100427.79;105524;1260;60501;-55
2024/01/12 06:49:25;;;;;;;1.30;0.50;;;;;;;-9.86;100.00;100425.19;104650;1260;75814;-55
2024/01/12 06:51:52;;;;;;;3.00;0.60;;;;;;;-9.88;100.00;100426.34;104547;1268;66013;-57
2024/01/12 06:54:19;;;;;;;1.20;0.50;;;;;;;-9.85;100.00;100424.02;104659;1258;70621;-57
2024/01/12 06:56:47;;;;;;;1.10;0.50;;;;;;;-9.82;100.00;100418.63;104724;1260;61611;-56
2024/01/12 06:59:14;;;;;;;1.00;0.50;;;;;;;-9.79;100.00;100419.95;104824;1256;60535;-56
2024/01/12 07:01:42;;;;;;;1.80;0.60;;;;;;;-9.77;100.00;100421.41;104577;1257;74427;-57
2024/01/12 07:04:09;;;;;;;2.10;0.60;;;;;;;-9.77;100.00;100423.52;104778;1261;67724;-55
2024/01/12 07:06:37;;;;;;;2.60;0.60;;;;;;;-9.74;100.00;100425.20;104761;1256;71464;-55
2024/01/12 07:09:05;;;;;;;4.10;0.60;;;;;;;-9.72;100.00;100432.80;104696;1271;60518;-56
2024/01/12 07:11:33;;;;;;;4.40;0.50;;;;;;;-9.69;100.00;100433.39;105443;1258;60979;-55
2024/01/12 07:14:01;;;;;;;2.70;0.70;;;;;;;-9.65;100.00;100433.40;104782;1261;74405;-55
2024/01/12 07:16:28;;;;;;;1.50;0.70;;;;;;;-9.62;100.00;100435.62;104603;1265;67037;-53
2024/01/12 07:18:55;;;;;;;3.10;0.80;;;;;;;-9.58;100.00;100437.70;104644;1261;71832;-54
2024/01/12 07:21:23;;;;;;;3.30;0.80;;;;;;;-9.55;100.00;100441.48;105193;1262;60429;-54
2024/01/12 07:23:51;;;;;;;2.00;0.70;;;;;;;-9.51;100.00;100447.01;104864;1260;60461;-55
2024/01/12 07:26:18;;;;;;;3.10;0.70;;;;;;;-9.47;100.00;100443.55;104922;1260;72998;-54
2024/01/12 07:28:46;;;;;;;2.90;0.90;;;;;;;-9.43;100.00;100450.31;104709;1261;65653;-55
2024/01/12 07:31:13;;;;;;;1.90;0.60;;;;;;;-9.39;100.00;100451.91;104793;1261;72493;-55
2024/01/12 07:33:40;;;;;;;2.00;0.90;;;;;;;-9.34;100.00;100454.35;104942;1257;62248;-53
2024/01/12 07:36:08;;;;;;;2.90;0.80;;;;;;;-9.28;100.00;100458.81;104833;1256;60611;-55
2024/01/12 07:38:36;;;;;;;2.20;0.70;;;;;;;-9.22;100.00;100456.80;104866;1261;72173;-53
2024/01/12 07:41:04;;;;;;;2.00;0.70;;;;;;;-9.15;100.00;100457.77;104865;1261;65964;-53
2024/01/12 07:43:31;;;;;;;3.20;0.80;;;;;;;-9.09;100.00;100458.52;104607;1261;72674;-53
2024/01/12 07:45:59;;;;;;;5.40;0.80;;;;;;;-9.10;100.00;100459.01;104621;1261;61336;-54
2024/01/12 07:48:26;;;;;;;7.40;1.30;;;;;;;-9.13;100.00;100458.00;104917;1258;61631;-56
2024/01/12 07:50:54;;;;;;;7.80;1.40;;;;;;;-9.17;100.00;100465.34;104844;1257;73037;-52
2024/01/12 07:53:21;;;;;;;4.90;1.00;;;;;;;-9.16;100.00;100458.95;104759;1260;66815;-54
2024/01/12 07:55:52;;;;;;;2.30;0.90;;;;;;;-9.14;100.00;100465.79;107358;1260;71692;-54
2024/01/12 07:58:20;;;;;;;5.40;1.20;;;;;;;-9.17;100.00;100457.33;105532;1257;60519;-53
2024/01/12 08:00:48;;;;;;;2.80;0.90;;;;;;;-9.20;100.00;100458.45;104782;1261;61904;-54
2024/01/12 08:03:15;;;;;;;4.50;0.70;;;;;;;-9.17;100.00;100456.63;104765;1258;73913;-55
2024/01/12 08:05:42;;;;;;;2.50;0.70;;;;;;;-9.14;100.00;100455.71;104890;1258;67326;-56
2024/01/12 08:08:10;;;;;;;1.70;0.60;;;;;;;-9.14;100.00;100458.31;104871;1260;71843;-56
2024/01/12 08:10:38;;;;;;;2.70;0.90;;;;;;;-9.14;100.00;100462.52;104522;1262;62261;-53
2024/01/12 08:13:05;;;;;;;2.90;0.80;;;;;;;-9.09;100.00;100460.09;104916;1262;60731;-55
2024/01/12 08:15:32;;;;;;;1.50;0.60;;;;;;;-9.04;100.00;100462.76;104939;1260;72572;-54
2024/01/12 08:18:00;;;;;;;2.00;0.50;;;;;;;-9.01;100.00;100464.06;104688;1260;69929;-54
2024/01/12 08:20:28;;;;;;;3.90;0.60;;;;;;;-9.01;100.00;100464.27;104877;1261;71650;-56
2024/01/12 08:22:57;;;;;;;2.80;0.60;;;;;;;-9.03;100.00;100471.33;105092;1257;60828;-56
2024/01/12 08:25:25;;;;;;;2.10;0.70;;;;;;;-9.02;100.00;100472.22;108698;1257;58826;-57
2024/01/12 08:27:52;;;;;;;2.50;0.70;;;;;;;-9.00;100.00;100473.14;108703;1258;74778;-58
2024/01/12 08:30:19;;;;;;;2.70;0.90;;;;;;;-8.98;100.00;100477.60;105629;1261;65884;-57
2024/01/12 08:32:47;;;;;;;1.90;0.80;;;;;;;-8.93;100.00;100485.11;104860;1261;72757;-57
2024/01/12 08:35:15;;;;;;;2.00;0.50;;;;;;;-8.87;100.00;100491.27;105497;1257;60479;-56
2024/01/12 08:37:42;;;;;;;3.70;0.70;;;;;;;-8.82;100.00;100484.85;105212;1261;60448;-56
2024/01/12 08:40:10;;;;;;;2.20;0.40;;;;;;;-8.78;100.00;100486.05;104699;1260;74045;-57
2024/01/12 08:42:39;;;;;;;5.40;1.10;;;;;;;-8.78;100.00;100489.19;104748;1257;65445;-56
2024/01/12 08:45:07;;;;;;;8.20;1.10;;;;;;;-8.82;100.00;100490.10;106406;1260;72833;-56
2024/01/12 08:47:34;;;;;;;3.30;0.80;;;;;;;-8.84;100.00;100488.96;106332;1260;60427;-56
2024/01/12 08:50:02;;;;;;;2.70;0.80;;;;;;;-8.80;100.00;100489.47;104581;1260;60452;-57
2024/01/12 08:52:29;;;;;;;2.80;0.80;;;;;;;-8.75;100.00;100491.38;104514;1261;74383;-55
2024/01/12 08:54:57;;;;;;;3.40;0.80;;;;;;;-8.70;100.00;100501.18;104655;1261;65867;-56
2024/01/12 08:57:24;;;;;;;2.20;0.80;;;;;;;-8.65;100.00;100506.05;104518;1264;70419;-55
2024/01/12 08:59:52;;;;;;;3.10;1.00;;;;;;;-8.61;100.00;100505.55;104518;1260;61507;-55
2024/01/12 09:02:19;;;;;;;2.40;0.90;;;;;;;-8.60;100.00;100508.73;107250;1257;59348;-55
2024/01/12 09:04:47;;;;;;;3.80;1.20;;;;;;;-8.59;100.00;100509.45;104831;1256;137702;-55
2024/01/12 09:09:03;;;;;;;3.00;0.80;;;;;;;-8.54;100.00;100560.63;101986;1289;600523;-55
2024/01/12 09:11:31;;;;;;;3.60;0.90;;;;;;;-8.55;100.00;100548.91;104090;1272;59264;-54
2024/01/12 09:13:58;;;;;;;4.40;0.90;;;;;;;-8.59;100.00;100540.42;104005;1273;59347;-55
2024/01/12 09:16:25;;;;;;;2.40;0.80;;;;;;;-8.64;100.00;100538.10;103612;1267;71053;-55
2024/01/12 09:18:53;;;;;;;1.30;0.60;;;;;;;-8.68;100.00;100535.03;104004;1270;67644;-56
2024/01/12 09:21:23;;;;;;;1.60;0.50;;;;;;;-8.70;100.00;100530.39;104195;1271;72747;-55
2024/01/12 09:23:50;;;;;;;1.10;0.40;;;;;;;-8.75;100.00;100527.39;103904;1264;158726;-55
2024/01/12 09:26:17;;;;;;;3.70;0.40;;;;;;;-8.75;100.00;100518.70;104178;1270;59368;-58
2024/01/12 09:28:45;;;;;;;2.50;0.50;;;;;;;-8.71;100.00;100519.41;104238;1266;72258;-56
2024/01/12 09:31:12;;;;;;;2.20;0.50;;;;;;;-8.70;100.00;100520.66;104048;1266;65750;-56
2024/01/12 09:33:41;;;;;;;0.90;0.40;;;;;;;-8.67;100.00;100525.30;104792;1257;71543;-55
2024/01/12 09:36:09;;;;;;;2.10;0.40;;;;;;;-8.59;100.00;100522.86;104610;1257;62290;-56
2024/01/12 09:38:36;;;;;;;0.80;0.40;;;;;;;-8.49;100.00;100520.98;104715;1261;59592;-56
2024/01/12 09:41:04;;;;;;;1.70;0.60;;;;;;;-8.45;100.00;100521.52;104733;1257;72328;-56
2024/01/12 09:43:32;;;;;;;0.70;0.40;;;;;;;-8.38;100.00;100523.66;104779;1262;69052;-53
2024/01/12 09:46:02;;;;;;;1.30;0.50;;;;;;;-8.30;100.00;100523.10;104898;1261;71447;-56
2024/01/12 09:48:30;;;;;;;1.50;0.40;;;;;;;-8.22;100.00;100528.45;104943;1257;60964;-56
2024/01/12 09:50:57;;;;;;;3.70;0.40;;;;;;;-8.17;100.00;100523.77;104687;1257;60732;-56
2024/01/12 09:53:25;;;;;;;1.50;0.50;;;;;;;-8.14;100.00;100527.89;104519;1255;72560;-57
2024/01/12 09:55:53;;;;;;;0.70;0.40;;;;;;;-8.15;100.00;100525.25;107394;1253;66955;-57
2024/01/12 09:58:37;;;;;;;1.70;0.50;;;;;;;-8.16;100.00;100524.33;104850;1254;72682;-58
2024/01/12 10:01:04;;;;;;;1.80;0.60;;;;;;;-8.18;100.00;100523.77;104826;1256;63048;-57
2024/01/12 10:03:32;;;;;;;2.00;0.40;;;;;;;-8.17;100.00;100521.52;104839;1253;59721;-57
2024/01/12 10:05:59;;;;;;;1.90;0.60;;;;;;;-8.12;100.00;100523.60;105805;1254;75703;-56
2024/01/12 10:08:37;;;;;;;2.90;0.70;;;;;;;-8.09;100.00;100522.55;104758;1259;65784;-55
2024/01/12 10:11:04;;;;;;;1.00;0.50;;;;;;;-8.07;100.00;100529.39;105781;1257;72377;-57
2024/01/12 10:13:32;;;;;;;1.20;0.40;;;;;;;-8.02;100.00;100531.66;107672;1256;59714;-55
2024/01/12 10:16:01;;;;;;;0.50;0.30;;;;;;;-8.02;100.00;100523.16;104756;1254;59746;-56
2024/01/12 10:18:29;;;;;;;0.70;0.30;;;;;;;-7.96;100.00;100520.20;104685;1259;73132;-57
2024/01/12 10:21:00;;;;;;;2.40;0.40;;;;;;;-7.87;100.00;100518.13;105110;1257;65751;-56
2024/01/12 10:23:28;;;;;;;0.80;0.30;;;;;;;-7.79;100.00;100513.90;104842;1254;71721;-56
2024/01/12 10:25:57;;;;;;;2.40;0.40;;;;;;;-7.79;100.00;100513.21;104765;1254;59701;-55
2024/01/12 10:28:27;;;;;;;0.90;0.40;;;;;;;-7.81;100.00;100513.27;104994;1254;60660;-55
2024/01/12 10:30:54;;;;;;;1.90;0.50;;;;;;;-7.82;100.00;100512.91;105285;1259;73082;-57
2024/01/12 10:33:22;;;;;;;2.80;0.90;;;;;;;-7.81;100.00;100513.13;105026;1259;67069;-57
2024/01/12 10:35:58;;;;;;;1.80;0.50;;;;;;;-7.80;100.00;100510.69;105000;1257;71605;-54
2024/01/12 10:38:26;;;;;;;1.10;0.50;;;;;;;-7.79;100.00;100512.99;105920;1254;59650;-56
2024/01/12 10:40:53;;;;;;;1.90;0.60;;;;;;;-7.78;100.00;100512.35;104929;1254;60135;-55
2024/01/12 10:43:22;;;;;;;2.10;0.40;;;;;;;-7.73;100.00;100512.20;104871;1256;73210;-55
2024/01/12 10:45:49;;;;;;;1.70;0.40;;;;;;;-7.63;100.00;100510.11;104994;1254;67501;-56
2024/01/12 10:48:19;;;;;;;1.10;0.40;;;;;;;-7.55;100.00;100513.53;104683;1254;72798;-56
2024/01/12 10:50:49;;;;;;;0.80;0.40;;;;;;;-7.52;100.00;100510.52;104957;1256;62770;-55
2024/01/12 10:53:27;;;;;;;2.30;0.40;;;;;;;-7.54;100.00;100509.21;106190;1256;59339;-56
2024/01/12 10:55:55;;;;;;;1.40;0.40;;;;;;;-7.56;100.00;100508.09;104975;1260;73169;-56
2024/01/12 10:58:23;;;;;;;1.80;0.40;;;;;;;-7.60;100.00;100506.41;104915;1259;66712;-55
2024/01/12 11:00:50;;;;;;;2.20;0.50;;;;;;;-7.63;100.00;100504.37;104705;1253;75191;-55
2024/01/12 11:03:18;;;;;;;1.00;0.40;;;;;;;-7.61;100.00;100499.03;104685;1259;59734;-54
2024/01/12 11:05:49;;;;;;;1.00;0.40;;;;;;;-7.62;100.00;100487.99;104731;1256;59723;-56
2024/01/12 11:08:16;;;;;;;1.50;0.40;;;;;;;-7.60;100.00;100490.17;105000;1254;73073;-55
2024/01/12 11:10:52;;;;;;;1.00;0.40;;;;;;;-7.54;100.00;100487.58;107323;1254;66612;-55
2024/01/12 11:13:19;;;;;;;0.80;0.40;;;;;;;-7.48;100.00;100480.16;104949;1257;71480;-54